createdAt,value
2023-01-29T00:01:08.942Z,0.30
2023-01-29T00:03:37.084Z,0.30
2023-01-29T00:06:06.664Z,0.40
2023-01-29T00:08:35.102Z,0.50
2023-01-29T00:11:03.626Z,0.50
2023-01-29T00:13:31.803Z,0.50
2023-01-29T00:16:00.155Z,0.50
2023-01-29T00:18:29.899Z,0.40
2023-01-29T00:20:57.966Z,0.40
2023-01-29T00:23:26.016Z,0.50
2023-01-29T00:25:54.071Z,0.50
2023-01-29T00:28:22.107Z,0.30
2023-01-29T00:30:50.162Z,0.40
2023-01-29T00:33:18.203Z,0.40
2023-01-29T00:35:48.565Z,0.40
2023-01-29T00:38:16.599Z,0.40
2023-01-29T00:41:02.374Z,0.30
2023-01-29T00:43:47.783Z,0.40
2023-01-29T00:46:15.868Z,0.40
2023-01-29T00:48:43.958Z,0.50
2023-01-29T00:51:13.369Z,0.50
2023-01-29T00:53:41.410Z,0.50
2023-01-29T00:56:09.473Z,0.30
2023-01-29T00:58:37.515Z,0.40
2023-01-29T01:01:05.870Z,0.40
2023-01-29T01:03:35.251Z,0.50
2023-01-29T01:06:06.795Z,0.40
2023-01-29T01:08:53.558Z,0.40
2023-01-29T01:11:21.972Z,0.50
2023-01-29T01:13:50.031Z,0.40
2023-01-29T01:16:21.124Z,0.40
2023-01-29T01:18:49.316Z,0.30
2023-01-29T01:21:18.265Z,0.30
2023-01-29T01:23:48.408Z,0.40
2023-01-29T01:26:16.481Z,0.40
2023-01-29T01:28:44.579Z,0.30
2023-01-29T01:31:13.472Z,0.40
2023-01-29T01:33:41.722Z,0.40
2023-01-29T01:36:10.131Z,0.50
2023-01-29T01:38:44.376Z,0.50
2023-01-29T01:41:14.592Z,0.50
2023-01-29T01:43:50.257Z,0.60
2023-01-29T01:46:18.398Z,0.50
2023-01-29T01:48:46.660Z,0.50
2023-01-29T01:51:14.699Z,0.60
2023-01-29T01:53:44.167Z,0.60
2023-01-29T01:56:15.222Z,0.50
2023-01-29T01:58:44.744Z,0.50
2023-01-29T02:01:12.919Z,0.50
2023-01-29T02:04:00.668Z,0.50
2023-01-29T02:06:45.981Z,0.50
2023-01-29T02:09:33.898Z,0.50
2023-01-29T02:12:04.125Z,0.60
2023-01-29T02:14:34.556Z,0.70
2023-01-29T02:17:02.722Z,0.70
2023-01-29T02:19:38.365Z,0.60
2023-01-29T02:22:45.099Z,0.60
2023-01-29T02:25:41.056Z,0.60
2023-01-29T02:28:15.537Z,0.70
2023-01-29T02:30:45.941Z,0.70
2023-01-29T02:33:18.131Z,0.70
2023-01-29T02:35:47.702Z,0.80
2023-01-29T02:38:19.018Z,0.70
2023-01-29T02:40:51.438Z,0.80
2023-01-29T02:43:28.640Z,0.80
2023-01-29T02:46:01.966Z,0.80
2023-01-29T02:48:34.315Z,0.70
2023-01-29T02:51:03.818Z,0.70
2023-01-29T02:53:35.203Z,0.80
2023-01-29T02:56:04.925Z,0.70
2023-01-29T02:58:35.863Z,0.70
2023-01-29T03:01:06.139Z,0.70
2023-01-29T03:03:36.830Z,0.80
2023-01-29T03:06:07.422Z,0.80
2023-01-29T03:08:42.933Z,0.80
2023-01-29T03:11:14.180Z,0.90
2023-01-29T03:13:46.773Z,0.80
2023-01-29T03:16:19.627Z,0.80
2023-01-29T03:18:51.286Z,0.90
2023-01-29T03:21:40.128Z,0.90
2023-01-29T03:24:30.152Z,0.80
2023-01-29T03:27:17.517Z,0.80
2023-01-29T03:30:05.214Z,0.70
2023-01-29T03:32:53.692Z,0.90
2023-01-29T03:35:33.483Z,0.80
2023-01-29T03:38:02.177Z,0.70
2023-01-29T03:40:30.514Z,0.80
2023-01-29T03:43:04.590Z,0.60
2023-01-29T03:45:38.368Z,0.70
2023-01-29T03:48:08.642Z,0.80
2023-01-29T03:50:39.393Z,0.90
2023-01-29T03:53:11.220Z,0.90
2023-01-29T03:55:41.714Z,0.90
2023-01-29T03:58:16.340Z,0.80
2023-01-29T04:00:47.810Z,0.90
2023-01-29T04:03:18.198Z,0.80
2023-01-29T04:05:50.289Z,0.90
2023-01-29T04:08:25.539Z,0.90
2023-01-29T04:10:53.779Z,0.90
2023-01-29T04:13:21.906Z,0.80
2023-01-29T04:15:55.363Z,0.90
2023-01-29T04:18:37.680Z,1.00
2023-01-29T04:21:10.322Z,1.00
2023-01-29T04:23:38.365Z,1.00
2023-01-29T04:26:23.735Z,0.90
2023-01-29T04:29:13.194Z,0.90
2023-01-29T04:31:46.753Z,1.00
2023-01-29T04:34:20.275Z,0.90
2023-01-29T04:36:52.899Z,1.00
2023-01-29T04:39:23.908Z,1.00
2023-01-29T04:41:54.461Z,1.00
2023-01-29T04:44:24.096Z,0.90
2023-01-29T04:46:54.290Z,0.90
2023-01-29T04:49:28.828Z,0.90
2023-01-29T04:51:59.659Z,0.90
2023-01-29T04:54:32.755Z,0.90
2023-01-29T04:57:05.249Z,1.00
2023-01-29T04:59:35.054Z,1.00
2023-01-29T05:02:04.461Z,1.00
2023-01-29T05:04:33.444Z,1.10
2023-01-29T05:07:03.687Z,1.10
2023-01-29T05:09:31.715Z,1.00
2023-01-29T05:11:59.781Z,1.00
2023-01-29T05:14:27.833Z,1.00
2023-01-29T05:16:55.892Z,1.10
2023-01-29T05:19:25.345Z,1.10
2023-01-29T05:21:53.380Z,1.20
2023-01-29T05:24:22.488Z,1.20
2023-01-29T05:27:09.115Z,1.10
2023-01-29T05:29:37.146Z,1.20
2023-01-29T05:32:05.227Z,1.20
2023-01-29T05:34:34.823Z,1.20
2023-01-29T05:37:02.934Z,1.30
2023-01-29T05:39:31.001Z,1.30
2023-01-29T05:41:59.069Z,1.40
2023-01-29T05:44:27.099Z,1.40
2023-01-29T05:46:55.235Z,1.30
2023-01-29T05:49:23.472Z,1.40
2023-01-29T05:51:52.891Z,1.50
2023-01-29T05:54:20.950Z,1.30
2023-01-29T05:56:49.017Z,1.30
2023-01-29T05:59:17.115Z,1.30
2023-01-29T06:01:45.195Z,1.40
2023-01-29T06:04:13.268Z,1.40
2023-01-29T06:06:41.355Z,1.50
2023-01-29T06:09:12.492Z,1.50
2023-01-29T06:11:40.706Z,1.50
2023-01-29T06:14:08.774Z,1.60
2023-01-29T06:16:36.844Z,1.60
2023-01-29T06:19:04.889Z,1.60
2023-01-29T06:21:32.950Z,1.60
2023-01-29T06:24:01.029Z,1.60
2023-01-29T06:26:30.482Z,1.60
2023-01-29T06:28:58.512Z,1.50
2023-01-29T06:31:38.430Z,1.60
2023-01-29T06:34:07.084Z,1.50
2023-01-29T06:36:35.292Z,1.50
2023-01-29T06:39:03.379Z,1.40
2023-01-29T06:41:32.780Z,1.50
2023-01-29T06:44:00.817Z,1.60
2023-01-29T06:46:28.867Z,1.60
2023-01-29T06:48:59.369Z,1.60
2023-01-29T06:51:27.431Z,1.70
2023-01-29T06:53:56.211Z,1.60
2023-01-29T06:56:24.735Z,1.70
2023-01-29T06:58:54.112Z,1.70
2023-01-29T07:01:35.259Z,1.60
2023-01-29T07:04:04.500Z,1.50
2023-01-29T07:06:32.699Z,1.60
2023-01-29T07:09:00.754Z,1.60
2023-01-29T07:11:28.855Z,1.50
2023-01-29T07:13:58.261Z,1.50
2023-01-29T07:16:26.555Z,1.50
2023-01-29T07:18:54.723Z,1.50
2023-01-29T07:21:22.808Z,1.50
2023-01-29T07:23:50.853Z,1.50
2023-01-29T07:26:18.921Z,1.50
2023-01-29T07:28:46.948Z,1.50
2023-01-29T07:31:16.533Z,1.60
2023-01-29T07:33:45.268Z,1.60
2023-01-29T07:36:13.505Z,1.60
2023-01-29T07:38:41.552Z,1.60
2023-01-29T07:41:10.705Z,1.60
2023-01-29T07:43:38.739Z,1.70
2023-01-29T07:46:07.099Z,1.60
2023-01-29T07:48:36.571Z,1.60
2023-01-29T07:51:04.734Z,1.70
2023-01-29T07:53:32.848Z,1.70
2023-01-29T07:56:00.917Z,1.70
2023-01-29T07:58:28.945Z,1.60
2023-01-29T08:00:57.028Z,1.60
2023-01-29T08:03:25.081Z,1.70
2023-01-29T08:05:54.499Z,1.80
2023-01-29T08:08:22.526Z,1.80
2023-01-29T08:10:50.580Z,1.70
2023-01-29T08:13:18.610Z,1.70
2023-01-29T08:15:46.718Z,1.80
2023-01-29T08:18:14.981Z,1.80
2023-01-29T08:20:43.013Z,1.70
2023-01-29T08:23:14.868Z,1.80
2023-01-29T08:25:43.006Z,1.70
2023-01-29T08:28:11.879Z,1.80
2023-01-29T08:30:39.970Z,1.80
2023-01-29T08:33:08.047Z,1.70
2023-01-29T08:35:36.149Z,1.80
2023-01-29T08:38:04.675Z,1.90
2023-01-29T08:40:34.639Z,1.90
2023-01-29T08:43:03.997Z,1.70
2023-01-29T08:45:33.270Z,1.80
2023-01-29T08:48:01.338Z,1.80
2023-01-29T08:50:30.620Z,1.90
2023-01-29T08:52:58.933Z,2.00
2023-01-29T08:55:27.097Z,2.00
2023-01-29T08:57:57.430Z,2.00
2023-01-29T09:00:25.825Z,2.00
2023-01-29T09:02:53.940Z,2.00
2023-01-29T09:05:21.969Z,2.00
2023-01-29T09:07:50.211Z,2.10
2023-01-29T09:10:19.490Z,2.00
2023-01-29T09:12:47.741Z,2.10
2023-01-29T09:15:17.530Z,2.10
2023-01-29T09:17:45.959Z,2.20
2023-01-29T09:20:14.064Z,2.10
2023-01-29T09:22:42.267Z,2.10
2023-01-29T09:25:10.822Z,2.20
2023-01-29T09:27:38.880Z,2.30
2023-01-29T09:30:08.136Z,2.30
2023-01-29T09:32:53.259Z,2.40
2023-01-29T09:35:21.922Z,2.40
2023-01-29T09:37:50.003Z,2.50
2023-01-29T09:40:24.821Z,2.10
2023-01-29T09:42:55.380Z,2.30
2023-01-29T09:45:25.111Z,2.30
2023-01-29T09:47:54.532Z,2.30
2023-01-29T09:50:24.700Z,2.40
2023-01-29T09:52:53.991Z,2.40
2023-01-29T09:55:23.798Z,2.30
2023-01-29T09:57:53.268Z,2.40
2023-01-29T10:00:24.468Z,2.40
2023-01-29T10:03:09.644Z,2.50
2023-01-29T10:05:44.882Z,2.60
2023-01-29T10:08:42.558Z,2.60
2023-01-29T10:11:14.578Z,2.70
2023-01-29T10:13:45.973Z,2.50
2023-01-29T10:16:27.042Z,2.50
2023-01-29T10:19:21.329Z,2.50
2023-01-29T10:22:06.662Z,2.40
2023-01-29T10:24:38.002Z,2.50
2023-01-29T10:27:13.249Z,2.60
2023-01-29T10:29:42.123Z,2.60
2023-01-29T10:32:10.832Z,2.70
2023-01-29T10:34:43.056Z,2.60
2023-01-29T10:37:16.675Z,2.70
2023-01-29T10:39:44.711Z,2.80
2023-01-29T10:42:22.369Z,2.90
2023-01-29T10:45:01.995Z,2.90
2023-01-29T10:47:46.843Z,3.10
2023-01-29T10:50:24.758Z,3.00
2023-01-29T10:53:01.002Z,3.00
2023-01-29T10:55:35.940Z,2.90
2023-01-29T10:58:08.333Z,3.10
2023-01-29T11:00:37.289Z,3.00
2023-01-29T11:03:26.329Z,3.10
2023-01-29T11:06:00.376Z,3.00
2023-01-29T11:08:29.855Z,3.20
2023-01-29T11:11:02.616Z,3.20
2023-01-29T11:13:35.039Z,3.20
2023-01-29T11:16:05.156Z,3.20
2023-01-29T11:18:49.646Z,3.40
2023-01-29T11:21:19.036Z,3.50
2023-01-29T11:23:47.345Z,3.50
2023-01-29T11:26:18.098Z,3.70
2023-01-29T11:28:46.862Z,3.60
2023-01-29T11:31:19.822Z,3.70
2023-01-29T11:33:47.948Z,3.60
2023-01-29T11:36:29.378Z,3.60
2023-01-29T11:39:17.345Z,3.60
2023-01-29T11:41:46.791Z,3.70
2023-01-29T11:44:22.239Z,3.70
2023-01-29T11:46:50.277Z,3.70
2023-01-29T11:49:24.853Z,3.70
2023-01-29T11:51:55.565Z,3.80
2023-01-29T11:54:23.690Z,3.80
2023-01-29T11:56:51.888Z,3.90
2023-01-29T11:59:28.323Z,3.80
2023-01-29T12:01:56.400Z,3.90
2023-01-29T12:04:25.138Z,3.90
2023-01-29T12:06:54.545Z,4.00
2023-01-29T12:09:23.219Z,4.10
2023-01-29T12:11:52.723Z,4.00
2023-01-29T12:14:30.026Z,4.10
2023-01-29T12:16:59.329Z,4.10
2023-01-29T12:19:29.423Z,4.10
2023-01-29T12:22:02.919Z,4.20
2023-01-29T12:24:34.284Z,4.10
2023-01-29T12:27:06.252Z,4.20
2023-01-29T12:29:38.506Z,4.20
2023-01-29T12:32:09.001Z,4.20
2023-01-29T12:34:44.586Z,4.10
2023-01-29T12:37:18.749Z,4.20
2023-01-29T12:39:46.861Z,4.10
2023-01-29T12:42:16.903Z,4.20
2023-01-29T12:44:46.168Z,4.20
2023-01-29T12:47:17.154Z,4.30
2023-01-29T12:49:45.302Z,4.20
2023-01-29T12:52:16.275Z,4.30
2023-01-29T12:54:47.757Z,4.20
2023-01-29T12:57:20.723Z,4.30
2023-01-29T12:59:50.661Z,4.20
2023-01-29T13:02:25.517Z,4.20
2023-01-29T13:04:56.865Z,4.20
2023-01-29T13:07:27.385Z,4.30
2023-01-29T13:09:57.624Z,4.30
2023-01-29T13:12:25.644Z,4.30
2023-01-29T13:14:55.222Z,4.40
2023-01-29T13:17:26.575Z,4.30
2023-01-29T13:19:56.050Z,4.30
2023-01-29T13:22:27.991Z,4.10
2023-01-29T13:25:04.705Z,4.10
2023-01-29T13:27:34.222Z,4.10
2023-01-29T13:30:02.594Z,4.20
2023-01-29T13:32:31.383Z,4.30
2023-01-29T13:35:00.361Z,4.30
2023-01-29T13:37:34.549Z,4.40
2023-01-29T13:40:03.738Z,4.40
2023-01-29T13:42:40.039Z,4.20
2023-01-29T13:45:09.601Z,4.20
2023-01-29T13:47:38.248Z,4.30
2023-01-29T13:50:07.829Z,4.30
2023-01-29T13:52:40.984Z,4.30
2023-01-29T13:55:10.830Z,4.20
2023-01-29T13:57:56.184Z,4.20
2023-01-29T14:01:01.458Z,4.00
2023-01-29T14:04:04.905Z,4.10
2023-01-29T14:06:50.702Z,4.10
2023-01-29T14:09:58.062Z,3.80
2023-01-29T14:12:41.109Z,4.00
2023-01-29T14:15:36.193Z,3.80
2023-01-29T14:18:26.089Z,3.90
2023-01-29T14:21:01.771Z,3.90
2023-01-29T14:23:41.477Z,3.70
2023-01-29T14:26:30.172Z,3.70
2023-01-29T14:29:02.402Z,3.70
2023-01-29T14:31:43.538Z,3.60
2023-01-29T14:34:17.557Z,3.70
2023-01-29T14:36:46.158Z,3.70
2023-01-29T14:39:48.242Z,3.80
2023-01-29T14:42:20.582Z,3.70
2023-01-29T14:45:01.279Z,3.70
2023-01-29T14:47:58.252Z,3.70
2023-01-29T14:50:44.396Z,3.70
2023-01-29T14:53:14.290Z,3.50
2023-01-29T14:55:43.007Z,3.50
2023-01-29T14:58:13.945Z,3.50
2023-01-29T15:00:44.792Z,3.50
2023-01-29T15:03:14.732Z,3.50
2023-01-29T15:05:42.853Z,3.60
2023-01-29T15:08:17.143Z,3.60
2023-01-29T15:10:46.677Z,3.70
2023-01-29T15:13:16.329Z,3.70
2023-01-29T15:15:48.696Z,3.50
2023-01-29T15:18:17.374Z,3.50
2023-01-29T15:20:45.505Z,3.60
2023-01-29T15:23:26.838Z,3.30
2023-01-29T15:25:56.311Z,3.40
2023-01-29T15:28:24.431Z,3.30
2023-01-29T15:30:56.218Z,3.30
2023-01-29T15:33:24.399Z,3.40
2023-01-29T15:36:06.723Z,3.30
2023-01-29T15:38:35.398Z,3.30
2023-01-29T15:41:04.850Z,3.20
2023-01-29T15:43:35.670Z,3.20
2023-01-29T15:46:06.103Z,3.30
2023-01-29T15:48:36.365Z,3.20
2023-01-29T15:51:07.356Z,3.20
2023-01-29T15:53:37.331Z,3.20
2023-01-29T15:56:09.200Z,3.20
2023-01-29T15:58:37.237Z,3.20
2023-01-29T16:01:07.252Z,3.10
2023-01-29T16:03:35.458Z,3.10
2023-01-29T16:06:03.478Z,3.20
2023-01-29T16:08:31.548Z,3.20
2023-01-29T16:11:00.543Z,3.20
2023-01-29T16:13:29.632Z,3.10
2023-01-29T16:15:58.905Z,3.10
2023-01-29T16:18:30.850Z,3.00
2023-01-29T16:20:59.489Z,3.10
2023-01-29T16:23:28.724Z,3.00
2023-01-29T16:25:57.404Z,3.10
2023-01-29T16:28:25.430Z,3.10
2023-01-29T16:30:56.618Z,3.00
2023-01-29T16:33:25.643Z,3.00
2023-01-29T16:35:55.039Z,2.90
2023-01-29T16:38:28.411Z,2.90
2023-01-29T16:41:15.795Z,2.90
2023-01-29T16:43:50.863Z,2.90
2023-01-29T16:46:26.116Z,2.80
2023-01-29T16:48:54.386Z,2.90
2023-01-29T16:51:26.285Z,2.90
2023-01-29T16:53:59.125Z,3.00
2023-01-29T16:56:27.507Z,3.00
2023-01-29T16:58:55.565Z,3.00
2023-01-29T17:01:24.380Z,3.00
2023-01-29T17:03:58.231Z,2.80
2023-01-29T17:06:27.735Z,2.80
2023-01-29T17:08:55.788Z,2.90
2023-01-29T17:11:29.450Z,2.90
2023-01-29T17:13:57.854Z,2.90
2023-01-29T17:16:28.310Z,2.90
2023-01-29T17:18:56.415Z,3.00
2023-01-29T17:21:24.467Z,3.00
2023-01-29T17:23:53.964Z,3.00
2023-01-29T17:26:22.062Z,3.00
2023-01-29T17:28:50.521Z,3.00
2023-01-29T17:31:18.675Z,3.00
2023-01-29T17:33:46.767Z,3.00
2023-01-29T17:36:15.718Z,2.90
2023-01-29T17:38:43.765Z,2.90
2023-01-29T17:41:17.146Z,2.90
2023-01-29T17:43:45.331Z,2.90
2023-01-29T17:46:14.834Z,2.90
2023-01-29T17:48:42.954Z,2.90
2023-01-29T17:51:13.106Z,2.90
2023-01-29T17:53:45.967Z,2.80
2023-01-29T17:56:19.939Z,2.90
2023-01-29T17:58:47.986Z,2.80
2023-01-29T18:01:16.152Z,2.80
2023-01-29T18:03:44.194Z,2.70
2023-01-29T18:06:12.775Z,2.80
2023-01-29T18:08:40.868Z,2.80
2023-01-29T18:11:11.141Z,2.80
2023-01-29T18:13:41.997Z,2.70
2023-01-29T18:16:10.165Z,2.60
2023-01-29T18:18:38.246Z,2.60
2023-01-29T18:21:07.905Z,2.70
2023-01-29T18:23:35.960Z,2.70
2023-01-29T18:26:04.034Z,2.60
2023-01-29T18:28:32.083Z,2.60
2023-01-29T18:31:02.413Z,2.60
2023-01-29T18:33:31.222Z,2.80
2023-01-29T18:35:59.287Z,2.70
2023-01-29T18:38:27.571Z,2.60
2023-01-29T18:40:55.623Z,2.70
2023-01-29T18:43:26.204Z,2.60
2023-01-29T18:45:58.184Z,2.60
2023-01-29T18:48:27.636Z,2.40
2023-01-29T18:50:55.682Z,2.60
2023-01-29T18:53:23.760Z,2.60
2023-01-29T18:55:58.711Z,2.50
2023-01-29T18:58:36.148Z,2.50
2023-01-29T19:01:09.081Z,2.50
2023-01-29T19:03:38.726Z,2.50
2023-01-29T19:06:07.918Z,2.50
2023-01-29T19:08:36.024Z,2.50
2023-01-29T19:11:08.111Z,2.40
2023-01-29T19:13:37.043Z,2.40
2023-01-29T19:16:08.084Z,2.40
2023-01-29T19:18:36.139Z,2.40
2023-01-29T19:21:09.007Z,2.40
2023-01-29T19:23:37.075Z,2.40
2023-01-29T19:26:05.471Z,2.40
2023-01-29T19:28:33.561Z,2.40
2023-01-29T19:31:01.705Z,2.40
2023-01-29T19:33:29.822Z,2.40
2023-01-29T19:35:57.894Z,2.40
2023-01-29T19:38:27.348Z,2.40
2023-01-29T19:40:56.227Z,2.50
2023-01-29T19:43:24.281Z,2.50
2023-01-29T19:45:58.339Z,2.40
2023-01-29T19:48:26.575Z,2.40
2023-01-29T19:50:54.758Z,2.50
2023-01-29T19:53:22.909Z,2.30
2023-01-29T19:55:59.825Z,2.40
2023-01-29T19:58:27.910Z,2.30
2023-01-29T20:00:57.318Z,2.30
2023-01-29T20:03:25.518Z,2.40
2023-01-29T20:05:53.594Z,2.30
2023-01-29T20:08:22.367Z,2.40
2023-01-29T20:10:50.464Z,2.30
2023-01-29T20:13:19.865Z,2.40
2023-01-29T20:15:47.994Z,2.40
2023-01-29T20:18:16.294Z,2.40
2023-01-29T20:20:44.611Z,2.40
2023-01-29T20:23:12.841Z,2.40
2023-01-29T20:25:40.883Z,2.40
2023-01-29T20:28:12.217Z,2.40
2023-01-29T20:30:41.881Z,2.40
2023-01-29T20:33:09.970Z,2.40
2023-01-29T20:35:38.627Z,2.40
2023-01-29T20:38:06.780Z,2.50
2023-01-29T20:40:34.876Z,2.50
2023-01-29T20:43:02.903Z,2.40
2023-01-29T20:45:33.084Z,2.40
2023-01-29T20:48:02.595Z,2.40
2023-01-29T20:50:30.655Z,2.40
2023-01-29T20:52:58.675Z,2.50
2023-01-29T20:55:27.044Z,2.50
2023-01-29T20:58:05.381Z,2.50
2023-01-29T21:00:34.698Z,2.40
2023-01-29T21:03:04.170Z,2.40
2023-01-29T21:05:32.405Z,2.30
2023-01-29T21:08:00.417Z,2.30
2023-01-29T21:10:28.529Z,2.30
2023-01-29T21:12:56.547Z,2.30
2023-01-29T21:15:27.348Z,2.40
2023-01-29T21:17:55.463Z,2.30
2023-01-29T21:20:24.870Z,2.30
2023-01-29T21:22:52.913Z,2.30
2023-01-29T21:25:21.515Z,2.40
2023-01-29T21:27:49.506Z,2.20
2023-01-29T21:30:18.758Z,2.30
2023-01-29T21:32:47.229Z,2.30
2023-01-29T21:35:15.471Z,2.30
2023-01-29T21:37:44.850Z,2.30
2023-01-29T21:40:13.282Z,2.30
2023-01-29T21:42:58.719Z,2.40
2023-01-29T21:45:26.771Z,2.40
2023-01-29T21:47:54.787Z,2.40
2023-01-29T21:50:22.836Z,2.40
2023-01-29T21:52:52.205Z,2.40
2023-01-29T21:55:20.249Z,2.40
2023-01-29T21:57:48.776Z,2.40
2023-01-29T22:00:18.173Z,2.40
2023-01-29T22:02:46.597Z,2.50
2023-01-29T22:05:19.822Z,2.40
2023-01-29T22:07:48.316Z,2.40
2023-01-29T22:10:18.930Z,2.50
2023-01-29T22:12:47.575Z,2.50
2023-01-29T22:15:15.935Z,2.50
2023-01-29T22:17:44.039Z,2.50
2023-01-29T22:20:13.339Z,2.60
2023-01-29T22:22:41.483Z,2.50
2023-01-29T22:25:10.521Z,2.60
2023-01-29T22:27:39.908Z,2.60
2023-01-29T22:30:09.341Z,2.50
2023-01-29T22:32:37.479Z,2.60
2023-01-29T22:35:06.194Z,2.60
2023-01-29T22:37:34.290Z,2.60
2023-01-29T22:40:02.299Z,2.60
2023-01-29T22:42:30.346Z,2.60
2023-01-29T22:44:59.720Z,2.50
2023-01-29T22:47:27.767Z,2.60
2023-01-29T22:49:55.797Z,2.50
2023-01-29T22:52:23.859Z,2.50
2023-01-29T22:54:52.220Z,2.50
2023-01-29T22:57:20.422Z,2.50
2023-01-29T22:59:48.444Z,2.60
2023-01-29T23:02:17.839Z,2.60
2023-01-29T23:04:45.918Z,2.60
2023-01-29T23:07:13.988Z,2.60
2023-01-29T23:09:42.055Z,2.60
2023-01-29T23:12:10.083Z,2.60
2023-01-29T23:14:38.120Z,2.60
2023-01-29T23:17:06.166Z,2.50
2023-01-29T23:19:35.543Z,2.60
2023-01-29T23:22:03.651Z,2.60
2023-01-29T23:24:31.672Z,2.60
2023-01-29T23:27:16.850Z,2.60
2023-01-29T23:29:45.101Z,2.60
2023-01-29T23:32:13.709Z,2.60
2023-01-29T23:34:43.100Z,2.60
2023-01-29T23:37:11.240Z,2.60
2023-01-29T23:39:39.248Z,2.60
2023-01-29T23:42:07.338Z,2.60
2023-01-29T23:44:35.634Z,2.60
2023-01-29T23:47:03.738Z,2.60
2023-01-29T23:49:31.771Z,2.60
2023-01-29T23:52:01.192Z,2.60
2023-01-29T23:54:29.272Z,2.60
2023-01-29T23:56:57.347Z,2.60
2023-01-29T23:59:28.160Z,2.60
